METAR Data
IDs: Format: Raw Decoded Include TAF

Data at: 2140 UTC 02 Aug 2021

ETHF 022120Z VRB01KT 9999 BKN043 15/14 Q1014 BLU